createdAt,value
2023-02-19T00:02:09.300Z,9.40
2023-02-19T00:04:43.055Z,9.40
2023-02-19T00:07:19.823Z,9.40
2023-02-19T00:09:53.098Z,9.40
2023-02-19T00:12:28.878Z,9.40
2023-02-19T00:15:04.064Z,9.40
2023-02-19T00:17:38.099Z,9.40
2023-02-19T00:20:05.118Z,9.40
2023-02-19T00:22:38.104Z,9.40
2023-02-19T00:25:05.013Z,9.40
2023-02-19T00:27:39.165Z,9.40
2023-02-19T00:30:06.364Z,9.40
2023-02-19T00:32:40.088Z,9.40
2023-02-19T00:35:17.093Z,9.40
2023-02-19T00:37:50.125Z,9.40
2023-02-19T00:40:24.151Z,9.30
2023-02-19T00:42:50.962Z,9.40
2023-02-19T00:45:24.128Z,9.40
2023-02-19T00:47:50.966Z,9.40
2023-02-19T00:50:24.127Z,9.40
2023-02-19T00:52:50.949Z,9.40
2023-02-19T00:55:24.132Z,9.40
2023-02-19T00:58:11.159Z,9.40
2023-02-19T01:00:37.854Z,9.40
2023-02-19T01:03:20.186Z,9.40
2023-02-19T01:05:46.921Z,9.50
2023-02-19T01:08:26.177Z,9.50
2023-02-19T01:10:53.343Z,9.50
2023-02-19T01:13:35.158Z,9.50
2023-02-19T01:16:14.220Z,9.50
2023-02-19T01:18:41.714Z,9.60
2023-02-19T01:21:29.171Z,9.60
2023-02-19T01:23:57.746Z,9.60
2023-02-19T01:26:34.209Z,9.60
2023-02-19T01:29:08.248Z,9.60
2023-02-19T01:31:35.468Z,9.50
2023-02-19T01:34:13.259Z,9.50
2023-02-19T01:36:46.216Z,9.50
2023-02-19T01:39:19.227Z,9.50
2023-02-19T01:41:46.061Z,9.50
2023-02-19T01:44:23.221Z,9.40
2023-02-19T01:46:57.412Z,9.40
2023-02-19T01:49:57.255Z,9.40
2023-02-19T01:52:32.683Z,9.40
2023-02-19T01:55:08.225Z,9.30
2023-02-19T01:57:41.996Z,9.30
2023-02-19T02:00:18.276Z,9.30
2023-02-19T02:02:57.261Z,9.30
2023-02-19T02:05:43.231Z,9.30
2023-02-19T02:08:36.336Z,9.30
2023-02-19T02:11:04.474Z,9.30
2023-02-19T02:13:41.293Z,9.30
2023-02-19T02:16:32.322Z,9.30
2023-02-19T02:19:19.302Z,9.30
2023-02-19T02:21:54.751Z,9.30
2023-02-19T02:24:34.277Z,9.30
2023-02-19T02:27:38.296Z,9.30
2023-02-19T02:30:14.346Z,9.30
2023-02-19T02:33:29.306Z,9.30
2023-02-19T02:36:07.158Z,9.30
2023-02-19T02:38:45.366Z,9.30
2023-02-19T02:41:20.293Z,9.20
2023-02-19T02:43:47.051Z,9.20
2023-02-19T02:46:28.306Z,9.20
2023-02-19T02:49:03.416Z,9.20
2023-02-19T02:51:57.315Z,9.20
2023-02-19T02:54:50.741Z,9.20
2023-02-19T02:57:26.366Z,9.20
2023-02-19T02:59:59.336Z,9.20
2023-02-19T03:02:37.470Z,9.10
2023-02-19T03:05:31.814Z,9.00
2023-02-19T03:08:20.641Z,9.00
2023-02-19T03:11:22.775Z,9.00
2023-02-19T03:14:19.406Z,9.00
2023-02-19T03:17:08.708Z,9.00
2023-02-19T03:19:48.511Z,9.00
2023-02-19T03:22:22.901Z,9.00
2023-02-19T03:25:30.437Z,9.00
2023-02-19T03:28:08.180Z,9.00
2023-02-19T03:30:46.411Z,9.00
2023-02-19T03:33:20.309Z,9.10
2023-02-19T03:35:59.402Z,9.10
2023-02-19T03:38:49.486Z,9.10
2023-02-19T03:41:50.381Z,9.10
2023-02-19T03:44:35.952Z,9.10
2023-02-19T03:47:28.377Z,9.10
2023-02-19T03:50:07.057Z,9.00
2023-02-19T03:53:06.413Z,9.10
2023-02-19T03:56:09.478Z,9.10
2023-02-19T03:58:49.052Z,9.10
2023-02-19T04:01:32.467Z,9.10
2023-02-19T04:04:18.485Z,9.10
2023-02-19T04:06:55.498Z,9.10
2023-02-19T04:09:25.232Z,9.10
2023-02-19T04:12:01.466Z,9.10
2023-02-19T04:14:40.848Z,9.10
2023-02-19T04:17:22.462Z,9.10
2023-02-19T04:19:51.588Z,9.10
2023-02-19T04:22:26.501Z,9.10
2023-02-19T04:25:01.494Z,9.10
2023-02-19T04:27:28.349Z,9.00
2023-02-19T04:29:55.105Z,9.00
2023-02-19T04:32:30.518Z,9.00
2023-02-19T04:34:57.258Z,9.00
2023-02-19T04:37:27.824Z,9.00
2023-02-19T04:40:01.737Z,9.00
2023-02-19T04:42:32.860Z,9.00
2023-02-19T04:44:59.669Z,9.00
2023-02-19T04:47:39.514Z,9.00
2023-02-19T04:50:06.534Z,9.00
2023-02-19T04:52:33.399Z,9.00
2023-02-19T04:55:06.554Z,9.00
2023-02-19T04:57:33.460Z,9.00
2023-02-19T05:00:00.202Z,9.00
2023-02-19T05:02:33.806Z,9.00
2023-02-19T05:05:01.846Z,9.00
2023-02-19T05:07:29.313Z,9.00
2023-02-19T05:10:02.560Z,9.00
2023-02-19T05:12:33.329Z,9.00
2023-02-19T05:15:02.372Z,8.90
2023-02-19T05:17:35.543Z,9.00
2023-02-19T05:20:08.574Z,9.00
2023-02-19T05:22:43.378Z,9.00
2023-02-19T05:25:16.540Z,9.00
2023-02-19T05:27:49.608Z,9.00
2023-02-19T05:30:16.497Z,9.00
2023-02-19T05:32:43.904Z,9.00
2023-02-19T05:35:17.848Z,9.00
2023-02-19T05:37:44.581Z,9.00
2023-02-19T05:40:11.420Z,9.10
2023-02-19T05:42:44.600Z,9.00
2023-02-19T05:45:11.324Z,9.10
2023-02-19T05:47:44.617Z,9.00
2023-02-19T05:50:17.637Z,9.10
2023-02-19T05:52:44.589Z,9.00
2023-02-19T05:55:25.637Z,9.00
2023-02-19T05:57:52.414Z,9.00
2023-02-19T06:00:20.583Z,9.00
2023-02-19T06:02:54.725Z,9.00
2023-02-19T06:05:21.720Z,9.00
2023-02-19T06:07:50.508Z,9.00
2023-02-19T06:10:24.625Z,9.00
2023-02-19T06:12:54.414Z,9.00
2023-02-19T06:15:28.671Z,9.00
2023-02-19T06:17:55.431Z,9.00
2023-02-19T06:20:22.173Z,9.00
2023-02-19T06:22:58.634Z,9.00
2023-02-19T06:25:32.349Z,9.00
2023-02-19T06:28:05.666Z,9.00
2023-02-19T06:30:32.743Z,8.90
2023-02-19T06:32:59.519Z,8.80
2023-02-19T06:35:42.669Z,8.80
2023-02-19T06:38:09.420Z,8.80
2023-02-19T06:40:36.198Z,8.70
2023-02-19T06:43:09.695Z,8.70
2023-02-19T06:45:43.678Z,8.60
2023-02-19T06:48:16.742Z,8.60
2023-02-19T06:50:50.260Z,8.60
2023-02-19T06:53:23.820Z,8.60
2023-02-19T06:56:05.451Z,8.60
2023-02-19T06:58:39.781Z,8.60
2023-02-19T07:01:06.662Z,8.60
2023-02-19T07:03:33.870Z,8.60
2023-02-19T07:06:07.916Z,8.60
2023-02-19T07:08:34.865Z,8.60
2023-02-19T07:11:01.630Z,8.60
2023-02-19T07:13:34.755Z,8.60
2023-02-19T07:16:04.468Z,8.60
2023-02-19T07:18:32.105Z,8.60
2023-02-19T07:21:17.768Z,8.60
2023-02-19T07:23:51.745Z,8.60
2023-02-19T07:26:20.308Z,8.60
2023-02-19T07:28:48.818Z,8.60
2023-02-19T07:31:23.797Z,8.60
2023-02-19T07:33:51.226Z,8.60
2023-02-19T07:36:31.810Z,8.60
2023-02-19T07:39:09.145Z,8.50
2023-02-19T07:41:36.826Z,8.50
2023-02-19T07:44:03.860Z,8.50
2023-02-19T07:46:37.944Z,8.50
2023-02-19T07:49:11.848Z,8.50
2023-02-19T07:51:39.929Z,8.60
2023-02-19T07:54:07.710Z,8.60
2023-02-19T07:56:41.238Z,8.60
2023-02-19T07:59:07.997Z,8.60
2023-02-19T08:02:00.816Z,8.60
2023-02-19T08:04:33.866Z,8.70
2023-02-19T08:07:09.832Z,8.60
2023-02-19T08:09:36.613Z,8.60
2023-02-19T08:12:29.076Z,8.60
2023-02-19T08:14:56.026Z,8.60
2023-02-19T08:17:36.883Z,8.60
2023-02-19T08:20:09.869Z,8.60
2023-02-19T08:22:36.712Z,8.60
2023-02-19T08:25:10.035Z,8.60
2023-02-19T08:27:36.924Z,8.60
2023-02-19T08:30:04.558Z,8.60
2023-02-19T08:32:37.889Z,8.60
2023-02-19T08:35:05.015Z,8.60
2023-02-19T08:37:31.728Z,8.70
2023-02-19T08:40:05.129Z,8.70
2023-02-19T08:42:32.157Z,8.70
2023-02-19T08:44:58.871Z,8.70
2023-02-19T08:47:32.044Z,8.70
2023-02-19T08:49:58.773Z,8.70
2023-02-19T08:52:25.520Z,8.80
2023-02-19T08:54:58.959Z,8.80
2023-02-19T08:57:33.052Z,8.80
2023-02-19T08:59:59.902Z,8.80
2023-02-19T09:02:26.663Z,8.80
2023-02-19T09:04:59.927Z,8.80
2023-02-19T09:07:27.346Z,8.80
2023-02-19T09:10:00.903Z,8.90
2023-02-19T09:12:33.908Z,8.90
2023-02-19T09:15:00.974Z,8.90
2023-02-19T09:17:37.902Z,9.00
2023-02-19T09:20:04.901Z,9.10
2023-02-19T09:22:37.964Z,9.10
2023-02-19T09:25:05.151Z,9.20
2023-02-19T09:27:41.000Z,9.20
2023-02-19T09:30:08.185Z,9.20
2023-02-19T09:32:41.999Z,9.20
2023-02-19T09:35:14.984Z,9.10
2023-02-19T09:37:47.983Z,9.20
2023-02-19T09:40:15.930Z,9.20
2023-02-19T09:42:50.291Z,9.10
2023-02-19T09:45:30.975Z,9.20
2023-02-19T09:48:04.976Z,9.20
2023-02-19T09:50:45.584Z,9.20
2023-02-19T09:53:25.966Z,9.20
2023-02-19T09:55:53.298Z,9.20
2023-02-19T09:58:37.052Z,9.20
2023-02-19T10:01:07.958Z,9.20
2023-02-19T10:03:48.272Z,9.20
2023-02-19T10:06:33.084Z,9.20
2023-02-19T10:09:23.964Z,9.10
2023-02-19T10:12:00.073Z,9.20
2023-02-19T10:14:41.994Z,9.10
2023-02-19T10:17:26.016Z,9.20
2023-02-19T10:20:00.042Z,9.10
2023-02-19T10:22:34.071Z,9.20
2023-02-19T10:25:00.912Z,9.20
2023-02-19T10:27:40.099Z,9.30
2023-02-19T10:30:14.433Z,9.30
2023-02-19T10:33:07.100Z,9.30
2023-02-19T10:35:35.788Z,9.20
2023-02-19T10:38:04.050Z,9.10
2023-02-19T10:40:37.072Z,9.10
2023-02-19T10:43:05.523Z,9.00
2023-02-19T10:45:47.086Z,9.00
2023-02-19T10:48:49.107Z,8.90
2023-02-19T10:51:22.911Z,8.90
2023-02-19T10:53:59.059Z,8.90
2023-02-19T10:56:29.921Z,8.80
2023-02-19T10:59:34.112Z,8.70
2023-02-19T11:02:15.439Z,8.70
2023-02-19T11:05:11.109Z,8.70
2023-02-19T11:07:47.187Z,8.80
2023-02-19T11:10:46.075Z,8.80
2023-02-19T11:13:39.145Z,8.80
2023-02-19T11:16:12.153Z,8.90
2023-02-19T11:18:40.821Z,8.80
2023-02-19T11:21:29.153Z,8.80
2023-02-19T11:24:03.148Z,8.90
2023-02-19T11:26:42.195Z,8.90
2023-02-19T11:29:28.490Z,8.90
2023-02-19T11:32:03.235Z,8.90
2023-02-19T11:34:30.345Z,8.80
2023-02-19T11:37:20.157Z,8.80
2023-02-19T11:39:51.276Z,8.80
2023-02-19T11:43:02.165Z,8.80
2023-02-19T11:45:50.153Z,8.80
2023-02-19T11:48:41.191Z,8.80
2023-02-19T11:51:11.444Z,8.90
2023-02-19T11:53:55.160Z,8.90
2023-02-19T11:56:40.178Z,8.90
2023-02-19T11:59:32.183Z,8.90
2023-02-19T12:02:20.603Z,8.90
2023-02-19T12:05:33.222Z,9.00
2023-02-19T12:08:29.422Z,9.10
2023-02-19T12:11:47.244Z,9.20
2023-02-19T12:14:48.212Z,9.20
2023-02-19T12:17:27.229Z,9.20
2023-02-19T12:20:28.764Z,9.10
2023-02-19T12:23:22.260Z,9.20
2023-02-19T12:26:11.573Z,9.30
2023-02-19T12:28:47.322Z,9.40
2023-02-19T12:32:00.326Z,9.60
2023-02-19T12:34:49.565Z,9.70
2023-02-19T12:38:01.233Z,9.80
2023-02-19T12:41:17.271Z,9.80
2023-02-19T12:44:07.227Z,9.80
2023-02-19T12:46:39.675Z,9.70
2023-02-19T12:49:36.290Z,9.60
2023-02-19T12:52:33.362Z,9.50
2023-02-19T12:55:18.340Z,9.30
2023-02-19T12:57:45.740Z,9.10
2023-02-19T13:00:40.266Z,9.00
2023-02-19T13:03:34.269Z,8.80
2023-02-19T13:06:14.760Z,8.80
2023-02-19T13:09:05.859Z,8.70
2023-02-19T13:12:21.333Z,8.60
2023-02-19T13:15:20.944Z,8.50
2023-02-19T13:18:01.128Z,8.40
2023-02-19T13:20:38.902Z,8.40
2023-02-19T13:23:31.347Z,8.30
2023-02-19T13:26:28.356Z,8.20
2023-02-19T13:29:22.683Z,8.10
2023-02-19T13:32:32.328Z,8.10
2023-02-19T13:35:20.394Z,8.00
2023-02-19T13:37:48.745Z,8.00
2023-02-19T13:40:31.423Z,8.00
2023-02-19T13:43:27.595Z,8.00
2023-02-19T13:46:10.388Z,8.10
2023-02-19T13:48:39.597Z,8.00
2023-02-19T13:51:31.390Z,8.00
2023-02-19T13:54:02.110Z,7.90
2023-02-19T13:56:41.398Z,7.90
2023-02-19T13:59:10.977Z,7.90
2023-02-19T14:01:56.426Z,7.90
2023-02-19T14:04:32.140Z,7.90
2023-02-19T14:07:09.566Z,7.90
2023-02-19T14:09:39.960Z,7.80
2023-02-19T14:12:19.715Z,7.80
2023-02-19T14:15:00.424Z,7.70
2023-02-19T14:17:39.915Z,7.70
2023-02-19T14:20:16.433Z,7.70
2023-02-19T14:22:56.375Z,7.70
2023-02-19T14:25:25.945Z,7.80
2023-02-19T14:28:23.452Z,7.70
2023-02-19T14:30:53.146Z,7.70
2023-02-19T14:33:31.574Z,7.60
2023-02-19T14:36:10.368Z,7.60
2023-02-19T14:38:53.472Z,7.60
2023-02-19T14:41:23.371Z,7.70
2023-02-19T14:44:00.443Z,7.70
2023-02-19T14:46:27.211Z,7.70
2023-02-19T14:49:00.602Z,7.80
2023-02-19T14:51:33.571Z,7.80
2023-02-19T14:54:15.970Z,7.80
2023-02-19T14:56:46.705Z,7.80
2023-02-19T14:59:35.499Z,7.70
2023-02-19T15:02:32.740Z,7.70
2023-02-19T15:04:59.611Z,7.70
2023-02-19T15:07:40.464Z,7.60
2023-02-19T15:10:09.297Z,7.60
2023-02-19T15:12:54.462Z,7.70
2023-02-19T15:15:29.733Z,7.70
2023-02-19T15:18:04.477Z,7.70
2023-02-19T15:20:36.939Z,7.70
2023-02-19T15:23:13.504Z,7.70
2023-02-19T15:25:49.562Z,7.60
2023-02-19T15:28:49.561Z,7.50
2023-02-19T15:31:16.477Z,7.50
2023-02-19T15:37:42.674Z,7.50
2023-02-19T15:40:14.876Z,7.50
2023-02-19T15:42:52.541Z,7.50
2023-02-19T15:45:35.616Z,7.40
2023-02-19T15:48:24.522Z,7.50
2023-02-19T15:50:57.802Z,7.40
2023-02-19T15:53:36.688Z,7.40
2023-02-19T15:56:35.774Z,7.40
2023-02-19T15:59:33.687Z,7.40
2023-02-19T16:02:01.604Z,7.40
2023-02-19T16:04:28.571Z,7.40
2023-02-19T16:07:07.560Z,7.40
2023-02-19T16:09:46.839Z,7.40
2023-02-19T16:12:24.686Z,7.40
2023-02-19T16:14:58.613Z,7.40
2023-02-19T16:17:28.248Z,7.40
2023-02-19T16:20:09.603Z,7.40
2023-02-19T16:22:42.991Z,7.40
2023-02-19T16:25:35.884Z,7.40
2023-02-19T16:28:10.973Z,7.40
2023-02-19T16:30:44.911Z,7.40
2023-02-19T16:33:42.083Z,7.40
2023-02-19T16:36:27.641Z,7.30
2023-02-19T16:39:06.890Z,7.20
2023-02-19T16:41:45.596Z,7.10
2023-02-19T16:44:27.621Z,7.10
2023-02-19T16:47:02.348Z,7.10
2023-02-19T16:49:35.632Z,7.10
2023-02-19T16:52:10.899Z,7.10
2023-02-19T16:54:44.791Z,7.10
2023-02-19T16:57:11.717Z,7.10
2023-02-19T16:59:38.554Z,7.10
2023-02-19T17:02:22.132Z,7.10
2023-02-19T17:04:51.718Z,7.10
2023-02-19T17:07:18.838Z,7.10
2023-02-19T17:09:52.688Z,7.10
2023-02-19T17:12:26.784Z,7.10
2023-02-19T17:14:53.598Z,7.10
2023-02-19T17:17:21.022Z,7.10
2023-02-19T17:19:54.963Z,7.10
2023-02-19T17:22:26.272Z,7.10
2023-02-19T17:25:01.808Z,7.10
2023-02-19T17:27:33.834Z,7.10
2023-02-19T17:30:00.869Z,7.10
2023-02-19T17:32:35.052Z,7.10
2023-02-19T17:35:01.898Z,7.10
2023-02-19T17:37:31.017Z,7.10
2023-02-19T17:40:04.704Z,7.10
2023-02-19T17:42:31.525Z,7.10
2023-02-19T17:45:04.877Z,7.10
2023-02-19T17:47:31.624Z,7.10
2023-02-19T17:49:58.378Z,7.10
2023-02-19T17:52:31.729Z,7.10
2023-02-19T17:54:58.658Z,7.10
2023-02-19T17:57:32.851Z,7.10
2023-02-19T18:00:00.442Z,7.10
2023-02-19T18:02:27.378Z,7.10
2023-02-19T18:05:00.741Z,7.10
2023-02-19T18:07:27.647Z,7.10
2023-02-19T18:09:55.591Z,7.10
2023-02-19T18:12:28.782Z,7.10
2023-02-19T18:15:08.789Z,7.10
2023-02-19T18:17:42.907Z,7.00
2023-02-19T18:20:14.146Z,7.00
2023-02-19T18:22:42.427Z,6.90
2023-02-19T18:25:16.814Z,6.90
2023-02-19T18:27:45.383Z,6.80
2023-02-19T18:30:13.110Z,6.70
2023-02-19T18:32:49.816Z,6.70
2023-02-19T18:35:24.992Z,6.70
2023-02-19T18:37:53.251Z,6.60
2023-02-19T18:40:21.850Z,6.60
2023-02-19T18:43:02.001Z,6.50
2023-02-19T18:45:29.666Z,6.50
2023-02-19T18:47:56.560Z,6.40
2023-02-19T18:50:29.966Z,6.40
2023-02-19T18:52:56.924Z,6.40
2023-02-19T18:55:23.778Z,6.30
2023-02-19T18:58:01.164Z,6.30
2023-02-19T19:00:28.017Z,6.20
2023-02-19T19:03:16.935Z,6.20
2023-02-19T19:05:50.646Z,6.20
2023-02-19T19:08:23.892Z,6.10
2023-02-19T19:10:51.677Z,6.10
2023-02-19T19:13:21.022Z,6.10
2023-02-19T19:15:58.985Z,6.10
2023-02-19T19:18:25.880Z,6.10
2023-02-19T19:21:02.915Z,6.10
2023-02-19T19:23:29.717Z,6.00
2023-02-19T19:25:56.719Z,6.10
2023-02-19T19:28:29.924Z,6.10
2023-02-19T19:31:03.973Z,6.00
2023-02-19T19:33:31.023Z,6.00
2023-02-19T19:35:57.813Z,6.00
2023-02-19T19:38:34.198Z,6.00
2023-02-19T19:41:10.172Z,6.00
2023-02-19T19:43:37.793Z,5.90
2023-02-19T19:46:10.971Z,5.90
2023-02-19T19:48:40.933Z,5.90
2023-02-19T19:51:14.932Z,5.80
2023-02-19T19:53:41.671Z,5.80
2023-02-19T19:56:15.219Z,5.80
2023-02-19T19:58:42.087Z,5.70
2023-02-19T20:01:08.919Z,5.70
2023-02-19T20:03:41.928Z,5.70
2023-02-19T20:06:08.906Z,5.60
2023-02-19T20:08:38.618Z,5.60
2023-02-19T20:11:12.213Z,5.60
2023-02-19T20:13:39.207Z,5.60
2023-02-19T20:16:13.959Z,5.50
2023-02-19T20:18:41.688Z,5.50
2023-02-19T20:21:10.064Z,5.40
2023-02-19T20:23:47.003Z,5.40
2023-02-19T20:26:19.994Z,5.40
2023-02-19T20:28:46.902Z,5.40
2023-02-19T20:31:14.224Z,5.40
2023-02-19T20:33:47.962Z,5.50
2023-02-19T20:36:21.000Z,5.40
2023-02-19T20:38:49.870Z,5.50
2023-02-19T20:41:23.158Z,5.40
2023-02-19T20:43:50.191Z,5.40
2023-02-19T20:46:18.445Z,5.40
2023-02-19T20:48:52.277Z,5.40
2023-02-19T20:51:19.104Z,5.40
2023-02-19T20:53:59.320Z,5.40
2023-02-19T20:56:26.194Z,5.40
2023-02-19T20:58:53.104Z,5.40
2023-02-19T21:01:33.296Z,5.40
2023-02-19T21:04:06.256Z,5.40
2023-02-19T21:06:40.036Z,5.40
2023-02-19T21:09:07.258Z,5.40
2023-02-19T21:11:34.255Z,5.40
2023-02-19T21:14:08.037Z,5.40
2023-02-19T21:16:35.161Z,5.40
2023-02-19T21:19:09.338Z,5.40
2023-02-19T21:21:36.159Z,5.40
2023-02-19T21:24:03.184Z,5.40
2023-02-19T21:26:42.198Z,5.40
2023-02-19T21:29:13.333Z,5.40
2023-02-19T21:31:52.176Z,5.40
2023-02-19T21:34:28.075Z,5.40
2023-02-19T21:36:56.035Z,5.40
2023-02-19T21:39:25.132Z,5.40
2023-02-19T21:42:07.229Z,5.40
2023-02-19T21:44:34.032Z,5.40
2023-02-19T21:47:05.973Z,5.30
2023-02-19T21:49:39.165Z,5.40
2023-02-19T21:52:06.063Z,5.40
2023-02-19T21:54:32.823Z,5.30
2023-02-19T21:57:09.525Z,5.30
2023-02-19T21:59:36.368Z,5.30
2023-02-19T22:02:07.002Z,5.30
2023-02-19T22:04:40.397Z,5.30
2023-02-19T22:07:07.319Z,5.30
2023-02-19T22:09:38.813Z,5.30
2023-02-19T22:12:12.153Z,5.30
2023-02-19T22:14:45.102Z,5.30
2023-02-19T22:17:12.497Z,5.30
2023-02-19T22:19:46.151Z,5.30
2023-02-19T22:22:15.127Z,5.30
2023-02-19T22:24:56.414Z,5.30
2023-02-19T22:27:24.806Z,5.30
2023-02-19T22:29:51.614Z,5.30
2023-02-19T22:32:27.244Z,5.30
2023-02-19T22:34:54.172Z,5.30
2023-02-19T22:37:21.393Z,5.30
2023-02-19T22:39:55.163Z,5.30
2023-02-19T22:42:24.154Z,5.30
2023-02-19T22:44:57.152Z,5.30
2023-02-19T22:47:23.940Z,5.30
2023-02-19T22:49:51.289Z,5.30
2023-02-19T22:52:24.172Z,5.40
2023-02-19T22:54:59.221Z,5.40
2023-02-19T22:57:29.365Z,5.50
2023-02-19T23:00:03.233Z,5.50
2023-02-19T23:02:34.389Z,5.60
2023-02-19T23:05:01.321Z,5.60
2023-02-19T23:07:42.204Z,5.60
2023-02-19T23:10:11.149Z,5.70
2023-02-19T23:12:49.189Z,5.70
2023-02-19T23:15:23.214Z,5.70
2023-02-19T23:17:50.051Z,5.80
2023-02-19T23:20:16.989Z,5.80
2023-02-19T23:22:50.511Z,5.80
2023-02-19T23:25:17.413Z,5.90
2023-02-19T23:27:49.790Z,5.90
2023-02-19T23:30:24.313Z,5.90
2023-02-19T23:32:51.134Z,5.90
2023-02-19T23:35:17.991Z,5.90
2023-02-19T23:37:56.263Z,6.00
2023-02-19T23:40:29.574Z,5.90
2023-02-19T23:42:56.812Z,6.00
2023-02-19T23:45:23.887Z,6.00
2023-02-19T23:47:57.287Z,6.00
2023-02-19T23:50:24.323Z,6.00
2023-02-19T23:52:58.259Z,6.00
2023-02-19T23:55:33.293Z,6.00
2023-02-19T23:58:00.193Z,6.00
